Time;durP1;ratioP1;P1;durP2;ratioP2;P2;SDS_P1;SDS_P2;PMS_P1;PMS_P2;Temp;Humidity;BMP_temperature;BMP_pressure;BME280_temperature;BME280_humidity;BME280_pressure;Samples;Min_cycle;Max_cycle;Signal;HPM_P1;HPM_P2
2021/01/04 00:00:27;;;;;;;13.55;4.30;;;;;;;6.65;63.29;100559.31;4957140;28;20054;-80
2021/01/04 00:03:18;;;;;;;10.77;4.30;;;;;;;6.83;63.10;100556.22;4928221;28;20047;-80
2021/01/04 00:06:14;;;;;;;13.30;4.47;;;;;;;6.72;63.44;100553.41;4951153;28;20500;-80
2021/01/04 00:09:00;;;;;;;11.07;3.25;;;;;;;6.20;64.75;100553.94;4943566;28;20122;-80
2021/01/04 00:11:40;;;;;;;10.60;3.55;;;;;;;6.18;64.59;100558.22;4940910;28;20422;-80
2021/01/04 00:14:16;;;;;;;7.47;3.10;;;;;;;6.09;65.32;100548.47;4943699;28;20065;-82
2021/01/04 00:17:02;;;;;;;10.38;3.05;;;;;;;6.10;65.70;100550.25;4946320;28;20046;-80
2021/01/04 00:19:49;;;;;;;12.90;3.20;;;;;;;6.39;64.67;100547.44;4957809;28;20042;-80
2021/01/04 00:22:18;;;;;;;13.82;3.70;;;;;;;6.60;63.76;100547.94;4959828;28;20055;-82
2021/01/04 00:25:30;;;;;;;13.82;3.22;;;;;;;6.47;64.18;100549.41;4961746;28;20144;-80
2021/01/04 00:28:05;;;;;;;13.75;3.40;;;;;;;6.64;63.38;100552.38;4926726;28;20446;-79
2021/01/04 00:30:36;;;;;;;12.98;3.47;;;;;;;6.50;63.66;100543.38;4918885;29;20048;-80
2021/01/04 00:33:18;;;;;;;8.60;3.22;;;;;;;6.53;63.60;100549.53;4980082;28;20045;-79
2021/01/04 00:35:48;;;;;;;13.63;3.25;;;;;;;6.40;63.85;100544.03;4985650;28;20428;-80
2021/01/04 00:38:23;;;;;;;14.38;3.17;;;;;;;6.24;64.77;100541.91;4971151;28;20070;-79
2021/01/04 00:41:24;;;;;;;15.27;3.25;;;;;;;6.02;65.73;100540.53;4981425;28;20050;-80
2021/01/04 00:43:54;;;;;;;11.20;3.47;;;;;;;6.41;64.03;100532.81;5001570;28;20038;-80
2021/01/04 00:46:29;;;;;;;10.15;3.00;;;;;;;6.24;64.65;100542.78;4996840;28;20500;-80
2021/01/04 00:49:05;;;;;;;6.13;2.97;;;;;;;6.88;63.15;100539.91;4987901;28;20479;-79
2021/01/04 00:51:31;;;;;;;8.18;3.53;;;;;;;6.54;63.87;100540.00;4990299;28;20123;-79
2021/01/04 00:53:59;;;;;;;8.98;2.88;;;;;;;6.19;64.75;100543.53;4999102;28;20076;-79
2021/01/04 00:56:39;;;;;;;9.80;3.63;;;;;;;6.58;63.85;100539.25;4995773;28;20096;-80
2021/01/04 00:59:13;;;;;;;9.60;3.28;;;;;;;6.67;62.67;100542.03;4992537;28;20053;-79
2021/01/04 01:02:01;;;;;;;16.17;3.10;;;;;;;6.65;62.62;100542.84;4995312;28;20517;-80
2021/01/04 01:05:05;;;;;;;13.80;3.47;;;;;;;6.38;63.18;100537.94;5033046;28;20033;-79
2021/01/04 01:07:57;;;;;;;8.57;4.25;;;;;;;6.60;62.97;100549.66;5018147;28;20053;-80
2021/01/04 01:10:27;;;;;;;7.90;2.80;;;;;;;6.60;63.09;100534.09;5004053;28;20129;-78
2021/01/04 01:13:21;;;;;;;10.93;2.60;;;;;;;6.33;63.11;100539.56;5023051;28;20045;-80
2021/01/04 01:16:08;;;;;;;6.78;3.00;;;;;;;6.44;62.86;100538.94;5020668;28;20560;-80
2021/01/04 01:18:49;;;;;;;7.50;2.95;;;;;;;6.38;62.99;100545.72;4977583;28;20045;-80
2021/01/04 01:21:16;;;;;;;6.60;2.80;;;;;;;6.27;63.40;100550.66;5017519;28;20052;-79
2021/01/04 01:23:42;;;;;;;8.57;3.08;;;;;;;6.20;63.77;100547.88;5015098;28;20063;-78
2021/01/04 01:26:12;;;;;;;10.23;4.80;;;;;;;5.91;64.20;100554.94;5020414;28;20133;-79
2021/01/04 01:29:21;;;;;;;10.82;3.05;;;;;;;6.14;63.80;100554.66;5020268;28;20140;-80
2021/01/04 01:32:14;;;;;;;9.10;2.83;;;;;;;6.05;64.68;100550.97;4991501;28;20087;-78
2021/01/04 01:34:48;;;;;;;10.65;3.08;;;;;;;5.73;65.25;100557.91;5018297;28;20394;-79
2021/01/04 01:37:39;;;;;;;9.57;3.00;;;;;;;5.93;65.42;100556.75;5017693;28;20122;-79
2021/01/04 01:40:42;;;;;;;15.40;4.32;;;;;;;6.32;64.72;100556.84;5022182;28;20030;-79
2021/01/04 01:43:23;;;;;;;7.20;3.45;;;;;;;6.28;64.35;100546.34;5017004;28;20517;-81
2021/01/04 01:46:48;;;;;;;13.88;3.70;;;;;;;6.28;64.78;100548.94;5021052;28;20132;-80
2021/01/04 01:49:31;;;;;;;14.20;3.33;;;;;;;6.57;62.91;100545.25;4949413;28;20125;-79
2021/01/04 01:52:29;;;;;;;15.65;3.28;;;;;;;6.48;63.25;100545.94;4949328;28;20046;-80
2021/01/04 01:55:27;;;;;;;9.00;2.70;;;;;;;6.44;63.30;100557.09;4954570;28;20043;-79
2021/01/04 01:58:11;;;;;;;12.73;2.45;;;;;;;6.52;63.76;100557.28;4957779;28;20055;-81
2021/01/04 02:01:02;;;;;;;6.50;1.80;;;;;;;5.52;66.28;100562.53;4942450;28;20097;-78
2021/01/04 02:03:48;;;;;;;4.20;1.95;;;;;;;6.11;64.44;100552.00;4957466;28;20043;-79
2021/01/04 02:06:33;;;;;;;8.27;2.22;;;;;;;6.53;63.54;100556.44;4962055;28;20126;-79
2021/01/04 02:09:25;;;;;;;11.65;2.35;;;;;;;6.53;63.28;100559.03;4943267;28;20047;-79
2021/01/04 02:12:09;;;;;;;8.43;2.55;;;;;;;6.19;64.38;100559.09;4964961;28;20043;-79
2021/01/04 02:15:19;;;;;;;8.15;1.95;;;;;;;6.55;63.22;100555.63;4939165;28;20057;-79
2021/01/04 02:18:06;;;;;;;10.80;2.40;;;;;;;6.50;63.28;100557.25;4930938;28;20380;-81
2021/01/04 02:21:34;;;;;;;10.65;2.47;;;;;;;6.72;62.66;100562.91;4924889;28;20062;-81
2021/01/04 02:24:09;;;;;;;15.07;2.63;;;;;;;6.83;62.14;100564.03;5017366;28;20043;-80
2021/01/04 02:26:56;;;;;;;9.48;2.25;;;;;;;6.67;62.50;100564.53;5020861;28;20037;-80
2021/01/04 02:29:23;;;;;;;8.32;2.50;;;;;;;6.16;64.05;100561.59;5017842;28;20495;-79
2021/01/04 02:31:59;;;;;;;7.38;2.10;;;;;;;6.56;62.61;100565.19;5025420;28;20142;-79
2021/01/04 02:34:56;;;;;;;9.35;2.53;;;;;;;6.44;62.76;100559.69;5017984;28;20045;-79
2021/01/04 02:37:25;;;;;;;10.90;2.42;;;;;;;6.06;64.42;100560.50;4904672;29;20051;-78
2021/01/04 02:40:09;;;;;;;9.98;2.53;;;;;;;6.35;63.34;100562.09;4921428;29;20367;-78
2021/01/04 02:42:39;;;;;;;13.45;2.80;;;;;;;6.55;62.62;100554.75;4902325;29;20043;-79
2021/01/04 02:45:26;;;;;;;10.18;2.10;;;;;;;6.74;61.94;100559.50;4920173;29;20056;-79
2021/01/04 02:48:09;;;;;;;7.68;2.28;;;;;;;6.61;62.39;100551.44;4908770;29;20103;-78
2021/01/04 02:50:53;;;;;;;;;;;;;;;6.71;62.08;100555.97;4921893;28;20078;-78
2021/01/04 02:53:39;;;;;;;4.10;2.10;;;;;;;6.45;62.99;100560.56;4921041;29;19922;-79
2021/01/04 02:56:46;;;;;;;7.25;2.03;;;;;;;6.38;62.70;100551.75;4924176;29;20078;-79
2021/01/04 02:59:42;;;;;;;5.57;2.47;;;;;;;6.45;63.01;100565.78;4906536;29;20155;-78
2021/01/04 03:02:20;;;;;;;8.85;3.05;;;;;;;6.36;62.86;100563.84;4922714;29;20059;-78
2021/01/04 03:04:49;;;;;;;8.05;2.22;;;;;;;6.02;64.87;100559.56;4923693;29;20043;-79
2021/01/04 03:07:35;;;;;;;5.80;2.33;;;;;;;6.01;64.13;100567.31;4919061;29;20107;-78
2021/01/04 03:10:28;;;;;;;7.40;2.05;;;;;;;6.40;63.91;100563.06;4910081;29;20048;-79
2021/01/04 03:13:12;;;;;;;7.78;2.45;;;;;;;5.53;65.74;100572.06;4933611;28;20143;-79
2021/01/04 03:16:11;;;;;;;5.97;2.00;;;;;;;6.43;63.38;100562.25;5003203;28;20041;-78
2021/01/04 03:18:51;;;;;;;9.32;2.60;;;;;;;6.84;62.49;100558.88;5005590;28;20045;-79
2021/01/04 03:21:23;;;;;;;9.85;2.35;;;;;;;7.08;61.52;100553.31;5002165;28;20128;-79
2021/01/04 03:23:51;;;;;;;7.15;2.08;;;;;;;6.90;61.72;100553.81;4993326;28;20045;-80
2021/01/04 03:26:28;;;;;;;7.15;2.38;;;;;;;6.89;61.55;100553.78;5021845;28;20342;-79
2021/01/04 03:28:54;;;;;;;6.50;1.92;;;;;;;6.54;62.40;100555.59;5023733;28;20515;-79
2021/01/04 03:31:21;;;;;;;12.10;2.53;;;;;;;6.70;61.79;100559.41;5018759;28;20049;-79
2021/01/04 03:33:48;;;;;;;9.60;1.98;;;;;;;6.58;61.94;100554.81;5000936;28;20424;-79
2021/01/04 03:36:15;;;;;;;9.60;1.92;;;;;;;6.63;61.58;100555.78;4986001;28;20120;-79
2021/01/04 03:38:42;;;;;;;9.68;2.05;;;;;;;6.60;62.11;100554.84;5025907;28;20045;-80
2021/01/04 03:41:09;;;;;;;9.40;1.98;;;;;;;6.41;62.46;100566.53;5023921;28;20037;-78
2021/01/04 03:43:35;;;;;;;7.38;1.95;;;;;;;6.43;62.79;100567.44;5019704;28;20049;-79
2021/01/04 03:46:03;;;;;;;9.65;2.15;;;;;;;6.35;63.48;100566.41;5034155;28;20123;-80
2021/01/04 03:48:30;;;;;;;7.22;1.98;;;;;;;6.07;63.60;100562.28;5016085;28;20057;-80
2021/01/04 03:50:57;;;;;;;8.32;2.25;;;;;;;6.14;64.24;100559.84;5024251;28;20073;-80
2021/01/04 03:53:23;;;;;;;14.40;2.30;;;;;;;6.18;64.08;100550.44;5002521;28;20050;-81
2021/01/04 03:55:50;;;;;;;6.85;2.78;;;;;;;6.25;63.92;100554.94;5024350;28;20088;-81
2021/01/04 03:58:17;;;;;;;10.95;2.30;;;;;;;6.82;62.27;100551.88;5018969;28;20074;-81
2021/01/04 04:00:43;;;;;;;11.85;2.40;;;;;;;6.25;64.07;100561.81;5023348;28;20584;-80
2021/01/04 04:03:10;;;;;;;7.20;2.50;;;;;;;6.71;62.59;100558.56;5000413;28;20041;-80
2021/01/04 04:05:36;;;;;;;5.15;1.75;;;;;;;6.50;63.22;100562.44;5003739;28;20497;-81
2021/01/04 04:08:04;;;;;;;6.70;1.65;;;;;;;6.54;62.54;100548.69;5019969;28;20492;-80
2021/01/04 04:10:31;;;;;;;7.75;1.75;;;;;;;6.40;62.69;100551.81;5022130;28;20447;-81
2021/01/04 04:12:58;;;;;;;5.55;2.00;;;;;;;5.98;64.20;100555.16;5007559;28;20431;-81
2021/01/04 04:15:25;;;;;;;8.77;2.03;;;;;;;6.00;64.43;100545.66;5018716;28;20041;-81
2021/01/04 04:17:52;;;;;;;7.38;1.73;;;;;;;6.11;64.06;100544.22;5006770;28;20045;-79
2021/01/04 04:20:22;;;;;;;9.52;2.08;;;;;;;5.64;65.08;100550.78;5020288;28;20069;-80
2021/01/04 04:22:50;;;;;;;11.43;1.75;;;;;;;5.38;66.26;100553.50;5005791;28;20132;-80
2021/01/04 04:25:19;;;;;;;17.85;2.45;;;;;;;5.90;65.52;100554.06;5017963;28;20527;-80
2021/01/04 04:27:46;;;;;;;7.32;1.98;;;;;;;6.47;63.60;100546.81;5022603;28;20135;-81
2021/01/04 04:30:16;;;;;;;16.30;2.17;;;;;;;6.19;63.93;100551.31;5016357;28;20061;-81
2021/01/04 04:32:43;;;;;;;12.80;2.30;;;;;;;6.60;62.93;100552.25;5021356;28;20045;-81
2021/01/04 04:35:11;;;;;;;11.40;1.83;;;;;;;6.52;62.90;100552.09;4999180;28;20053;-80
2021/01/04 04:37:42;;;;;;;13.45;2.08;;;;;;;6.09;63.97;100552.81;5023721;28;20134;-80
2021/01/04 04:40:18;;;;;;;10.88;2.17;;;;;;;5.78;65.11;100563.22;5020970;28;20057;-78
2021/01/04 04:42:46;;;;;;;8.95;1.77;;;;;;;6.36;64.03;100560.38;5024337;28;20103;-80
2021/01/04 04:45:19;;;;;;;8.20;2.10;;;;;;;6.38;63.68;100556.09;5002166;28;20141;-80
2021/01/04 04:48:24;;;;;;;9.13;1.95;;;;;;;6.26;64.05;100561.00;5022601;28;20488;-80
2021/01/04 04:50:57;;;;;;;10.18;2.13;;;;;;;5.79;65.85;100558.09;5017320;28;20045;-81
2021/01/04 04:53:38;;;;;;;12.43;2.33;;;;;;;6.48;63.65;100558.03;5001445;28;20202;-80
2021/01/04 04:56:47;;;;;;;9.48;1.95;;;;;;;6.24;63.74;100562.66;5033198;28;20208;-80
2021/01/04 04:59:29;;;;;;;7.50;2.10;;;;;;;6.44;63.54;100561.41;5018890;28;20077;-81
2021/01/04 05:02:26;;;;;;;15.38;2.25;;;;;;;6.80;62.07;100564.84;4980259;28;20132;-81
2021/01/04 05:05:08;;;;;;;8.73;2.47;;;;;;;6.10;63.82;100557.16;4988092;28;20046;-80
2021/01/04 05:07:45;;;;;;;10.60;3.83;;;;;;;6.32;63.27;100569.81;5034466;28;20045;-79
2021/01/04 05:10:23;;;;;;;9.00;2.10;;;;;;;5.99;64.21;100566.41;5022047;28;20326;-80
2021/01/04 05:12:56;;;;;;;11.52;2.40;;;;;;;6.09;64.70;100576.16;5004990;28;20378;-81
2021/01/04 05:15:53;;;;;;;13.77;2.28;;;;;;;6.69;62.81;100573.22;5018961;28;20050;-78
2021/01/04 05:18:43;;;;;;;12.63;2.25;;;;;;;5.94;64.58;100566.28;5019917;28;20405;-80
2021/01/04 05:21:47;;;;;;;15.45;2.40;;;;;;;6.18;64.41;100570.31;5017172;28;20121;-79
2021/01/04 05:24:34;;;;;;;12.38;2.35;;;;;;;5.93;64.90;100574.03;5021492;28;20501;-80
2021/01/04 05:27:12;;;;;;;4.72;1.80;;;;;;;5.78;65.89;100558.91;5021010;28;20099;-80
2021/01/04 05:30:16;;;;;;;10.25;2.83;;;;;;;6.15;64.68;100563.31;5017011;28;20053;-81
2021/01/04 05:33:01;;;;;;;10.55;2.78;;;;;;;6.44;63.92;100559.69;5010984;28;20612;-81
2021/01/04 05:35:29;;;;;;;12.80;2.72;;;;;;;6.10;64.76;100568.41;5018133;28;20053;-80
2021/01/04 05:38:26;;;;;;;6.60;2.70;;;;;;;6.44;64.12;100562.28;5017922;28;20125;-80
2021/01/04 05:41:01;;;;;;;7.10;2.53;;;;;;;6.69;63.46;100560.25;5002703;28;20144;-79
2021/01/04 05:43:49;;;;;;;7.88;2.60;;;;;;;6.83;62.80;100564.03;5017112;28;20081;-80
2021/01/04 05:47:01;;;;;;;9.88;1.98;;;;;;;6.31;64.50;100559.38;5017803;28;20152;-80
2021/01/04 05:49:45;;;;;;;15.55;2.45;;;;;;;6.00;66.45;100570.72;5000497;28;20486;-81
2021/01/04 05:52:15;;;;;;;7.22;2.40;;;;;;;6.47;64.76;100567.56;5000074;28;20057;-80
2021/01/04 05:54:42;;;;;;;13.82;3.13;;;;;;;6.11;65.69;100570.16;5007550;28;20073;-80
2021/01/04 05:57:12;;;;;;;16.20;2.20;;;;;;;5.98;65.88;100575.91;5017922;28;20107;-79
2021/01/04 05:59:49;;;;;;;11.77;1.92;;;;;;;6.30;65.15;100576.66;5015999;28;20091;-80
2021/01/04 06:02:29;;;;;;;11.23;2.00;;;;;;;6.09;65.53;100571.81;5012786;28;20056;-80
2021/01/04 06:05:14;;;;;;;11.13;1.92;;;;;;;5.91;65.75;100583.47;5022949;28;20049;-81
2021/01/04 06:07:44;;;;;;;11.57;3.03;;;;;;;5.91;65.90;100586.06;5013088;28;20076;-81
2021/01/04 06:10:29;;;;;;;5.30;1.98;;;;;;;5.82;67.16;100596.16;5018650;28;20080;-80
2021/01/04 06:13:12;;;;;;;10.05;2.15;;;;;;;5.44;68.54;100596.03;5019206;28;20084;-79
2021/01/04 06:15:41;;;;;;;14.73;2.38;;;;;;;6.05;66.49;100600.25;5018341;28;20064;-79
2021/01/04 06:18:13;;;;;;;12.40;2.55;;;;;;;6.53;65.22;100585.88;5020315;28;20686;-81
2021/01/04 06:20:43;;;;;;;11.55;2.30;;;;;;;6.35;65.29;100589.75;5007473;28;20115;-81
2021/01/04 06:23:36;;;;;;;12.48;2.97;;;;;;;6.40;64.70;100593.34;5004769;28;20132;-78
2021/01/04 06:26:13;;;;;;;10.98;1.92;;;;;;;5.55;68.08;100591.16;5034394;28;20599;-80
2021/01/04 06:29:07;;;;;;;13.38;1.80;;;;;;;5.76;67.48;100604.66;5022428;28;20045;-80
2021/01/04 06:31:40;;;;;;;8.77;2.25;;;;;;;6.17;65.77;100597.09;5015532;28;21370;-79
2021/01/04 06:34:32;;;;;;;13.15;2.47;;;;;;;6.76;64.14;100588.97;5036172;28;20103;-81
2021/01/04 06:37:02;;;;;;;10.05;2.38;;;;;;;5.75;67.25;100592.56;5006296;28;20514;-80
2021/01/04 06:39:33;;;;;;;14.32;3.10;;;;;;;6.52;64.86;100601.44;5020694;28;20464;-82
2021/01/04 06:42:22;;;;;;;14.70;2.72;;;;;;;5.81;66.60;100594.41;5028023;28;20050;-81
2021/01/04 06:45:18;;;;;;;17.20;3.08;;;;;;;6.45;65.25;100595.19;5023730;28;20126;-81
2021/01/04 06:47:51;;;;;;;9.77;2.72;;;;;;;6.21;65.50;100597.22;5023831;28;20049;-82
2021/01/04 06:50:35;;;;;;;21.45;3.10;;;;;;;6.28;65.21;100601.72;5018501;28;20059;-80
2021/01/04 06:53:14;;;;;;;10.32;2.17;;;;;;;6.56;64.46;100611.03;5023152;28;20515;-80
2021/01/04 06:56:11;;;;;;;10.85;2.30;;;;;;;5.92;66.11;100614.63;5005009;28;20084;-81
2021/01/04 06:58:58;;;;;;;11.38;2.90;;;;;;;5.79;66.88;100616.84;5026257;28;20061;-81
2021/01/04 07:02:07;;;;;;;20.73;2.50;;;;;;;6.21;65.41;100611.91;5022250;28;20049;-80
2021/01/04 07:05:00;;;;;;;10.23;2.08;;;;;;;6.70;64.09;100619.13;5006727;28;20053;-79
2021/01/04 07:07:49;;;;;;;9.50;2.28;;;;;;;6.50;64.38;100618.66;5023891;28;20057;-81
2021/01/04 07:10:41;;;;;;;9.23;2.72;;;;;;;6.22;65.67;100616.25;5023097;28;20069;-81
2021/01/04 07:13:16;;;;;;;16.40;2.80;;;;;;;6.19;65.57;100614.44;5026467;28;20065;-80
2021/01/04 07:16:15;;;;;;;7.85;2.50;;;;;;;6.32;65.15;100606.13;5035816;28;20057;-80
2021/01/04 07:19:02;;;;;;;15.38;2.63;;;;;;;6.02;65.55;100605.38;5007938;28;20388;-85
2021/01/04 07:21:40;;;;;;;13.48;2.90;;;;;;;5.97;66.16;100612.16;5018225;28;20084;-79
2021/01/04 07:24:18;;;;;;;16.65;3.03;;;;;;;6.30;65.04;100615.59;5023656;28;20056;-79
2021/01/04 07:27:02;;;;;;;10.27;2.97;;;;;;;6.42;65.13;100610.72;5032552;28;20042;-79
2021/01/04 07:29:54;;;;;;;13.68;3.50;;;;;;;6.66;64.00;100618.19;5023358;28;20057;-79
2021/01/04 07:32:44;;;;;;;11.30;3.28;;;;;;;6.68;64.07;100620.81;5016805;28;20045;-78
2021/01/04 07:35:20;;;;;;;11.80;2.67;;;;;;;6.71;63.92;100614.00;5036925;28;20045;-79
2021/01/04 07:38:02;;;;;;;21.38;3.95;;;;;;;6.76;63.53;100616.69;5023495;28;20045;-80
2021/01/04 07:40:31;;;;;;;;;;;;;;;6.89;63.20;100611.78;5026786;28;20087;-80
2021/01/04 07:43:28;;;;;;;17.08;3.25;;;;;;;6.96;62.58;100623.16;5024522;28;19921;-80
2021/01/04 07:45:55;;;;;;;9.50;3.55;;;;;;;6.46;63.90;100619.44;5005741;28;20045;-80
2021/01/04 07:48:46;;;;;;;12.20;2.80;;;;;;;6.74;63.49;100628.75;5021550;28;20053;-80
2021/01/04 07:51:27;;;;;;;12.13;3.30;;;;;;;6.40;64.69;100625.34;5023560;28;20057;-80
2021/01/04 07:54:05;;;;;;;14.83;3.53;;;;;;;6.34;64.17;100621.72;5028184;28;20156;-80
2021/01/04 07:57:22;;;;;;;16.77;2.90;;;;;;;6.60;63.96;100631.03;5008721;28;20038;-80
2021/01/04 08:00:13;;;;;;;10.80;2.90;;;;;;;6.13;65.25;100632.47;5022689;28;20488;-79
2021/01/04 08:02:55;;;;;;;18.17;2.92;;;;;;;5.51;66.88;100630.78;5018492;28;20053;-83
2021/01/04 08:05:22;;;;;;;11.85;2.85;;;;;;;6.02;65.66;100636.50;5040585;28;20061;-79
2021/01/04 08:08:31;;;;;;;18.85;4.10;;;;;;;5.46;66.69;100640.13;5028176;28;20455;-88
2021/01/04 08:11:35;;;;;;;26.92;4.07;;;;;;;5.62;66.57;100638.00;5018014;28;20381;-83
2021/01/04 08:14:08;;;;;;;16.23;3.47;;;;;;;5.72;66.25;100633.94;5028300;28;20060;-86
2021/01/04 08:17:05;;;;;;;10.63;2.50;;;;;;;5.55;66.97;100635.19;5032845;28;20053;-87
2021/01/04 08:19:39;;;;;;;12.85;2.83;;;;;;;5.78;65.69;100633.22;4941523;28;20640;-84
2021/01/04 08:22:39;;;;;;;21.27;4.28;;;;;;;5.40;66.42;100640.84;4944680;28;20084;-83
2021/01/04 08:25:36;;;;;;;11.95;2.53;;;;;;;5.59;66.15;100650.00;4925794;28;20050;-89
2021/01/04 08:28:17;;;;;;;11.00;2.28;;;;;;;5.76;65.84;100645.25;4935014;28;20077;-84
2021/01/04 08:31:14;;;;;;;14.95;2.67;;;;;;;5.96;65.07;100657.09;4937816;28;20098;-88
2021/01/04 08:33:50;;;;;;;10.73;3.10;;;;;;;6.01;64.71;100658.09;4865353;29;20045;-85
2021/01/04 08:36:29;;;;;;;16.23;2.95;;;;;;;5.80;65.57;100658.38;4874979;29;20048;-87
2021/01/04 08:39:11;;;;;;;8.45;2.17;;;;;;;5.10;67.96;100663.25;4883469;29;20053;-85
2021/01/04 08:41:42;;;;;;;16.63;2.72;;;;;;;5.27;67.67;100662.91;4865783;29;20053;-91
2021/01/04 08:44:22;;;;;;;19.30;3.83;;;;;;;5.45;67.78;100659.97;4850806;29;20059;-88
2021/01/04 08:46:51;;;;;;;13.65;3.58;;;;;;;5.78;66.18;100664.34;4886587;29;20055;-90
2021/01/04 08:49:44;;;;;;;16.35;3.25;;;;;;;5.55;67.53;100664.59;4849162;29;20056;-87
2021/01/04 08:52:22;;;;;;;14.02;3.28;;;;;;;5.82;66.04;100668.75;4866673;29;20044;-84
2021/01/04 08:55:04;;;;;;;11.88;2.80;;;;;;;5.65;66.42;100679.56;4882062;29;20515;-91
2021/01/04 08:57:44;;;;;;;10.40;2.43;;;;;;;6.22;64.76;100676.81;4880554;29;20115;-92
2021/01/04 09:00:20;;;;;;;9.35;2.47;;;;;;;5.80;66.15;100680.84;4873646;29;20123;-87
2021/01/04 09:03:01;;;;;;;13.63;2.50;;;;;;;5.17;67.12;100675.56;4920365;29;20064;-85
2021/01/04 09:07:48;;;;;;;12.70;2.13;;;;;;;6.71;63.52;100672.81;5041832;27;20360;-81
2021/01/04 09:10:46;;;;;;;15.40;2.75;;;;;;;5.71;65.26;100689.22;4974037;28;20050;-80
2021/01/04 09:13:22;;;;;;;7.53;2.33;;;;;;;5.68;66.44;100689.13;5013537;28;20060;-81
2021/01/04 09:15:50;;;;;;;23.13;5.70;;;;;;;5.34;67.44;100689.00;5007471;28;20038;-78
2021/01/04 09:19:03;;;;;;;18.17;2.58;;;;;;;5.49;67.18;100702.41;4996363;28;20049;-77
2021/01/04 09:21:45;;;;;;;12.70;2.40;;;;;;;5.68;66.51;100690.00;4989339;28;20080;-79
2021/01/04 09:24:32;;;;;;;17.90;2.58;;;;;;;5.56;67.46;100684.47;5020331;28;20558;-82
2021/01/04 09:27:22;;;;;;;10.32;2.40;;;;;;;5.16;67.49;100684.16;5023085;28;20055;-78
2021/01/04 09:29:59;;;;;;;11.55;1.95;;;;;;;6.16;65.96;100699.09;5046549;28;20054;-78
2021/01/04 09:32:40;;;;;;;14.32;3.17;;;;;;;6.11;66.09;100691.22;5023942;28;20048;-78
2021/01/04 09:35:27;;;;;;;8.32;1.75;;;;;;;6.72;63.76;100688.41;5030370;28;20414;-81
2021/01/04 09:38:20;;;;;;;10.30;2.40;;;;;;;6.38;64.93;100686.72;5039224;28;20411;-80
2021/01/04 09:40:51;;;;;;;16.52;3.00;;;;;;;6.31;64.66;100697.81;5020704;28;20041;-79
2021/01/04 09:43:24;;;;;;;12.95;2.88;;;;;;;6.63;63.82;100702.91;5026850;28;20107;-78
2021/01/04 09:46:07;;;;;;;18.15;3.75;;;;;;;5.82;65.63;100698.16;5007853;28;20652;-80
2021/01/04 09:48:48;;;;;;;13.95;2.78;;;;;;;6.60;63.59;100695.94;4964262;28;20140;-78
2021/01/04 09:51:23;;;;;;;13.02;3.03;;;;;;;6.60;63.09;100713.22;4967699;28;20053;-79
2021/01/04 09:53:57;;;;;;;8.25;2.50;;;;;;;6.42;64.57;100708.47;4999287;28;20133;-82
2021/01/04 09:56:29;;;;;;;20.15;3.15;;;;;;;6.32;64.14;100709.06;4991243;28;20046;-83
2021/01/04 09:59:02;;;;;;;17.40;2.78;;;;;;;6.74;63.17;100711.84;4978485;28;20039;-82
2021/01/04 10:01:40;;;;;;;19.85;2.90;;;;;;;7.10;62.07;100707.50;4958683;28;21485;-80
2021/01/04 10:04:09;;;;;;;10.88;2.47;;;;;;;6.57;63.55;100703.63;5000825;28;20073;-78
2021/01/04 10:06:39;;;;;;;12.85;2.95;;;;;;;6.49;63.68;100702.56;4969240;28;20050;-79
2021/01/04 10:09:14;;;;;;;20.67;3.17;;;;;;;6.78;63.12;100703.28;4946067;28;20053;-80
2021/01/04 10:11:52;;;;;;;12.60;2.58;;;;;;;6.95;61.99;100700.22;4952492;28;20039;-78
2021/01/04 10:14:20;;;;;;;12.82;2.65;;;;;;;6.99;61.78;100704.69;4954652;28;20102;-76
2021/01/04 10:16:54;;;;;;;18.50;3.53;;;;;;;7.00;61.51;100706.41;4951644;28;20132;-78
2021/01/04 10:19:54;;;;;;;12.20;2.70;;;;;;;7.08;60.92;100708.31;4931001;28;20043;-78
2021/01/04 10:22:28;;;;;;;13.52;2.40;;;;;;;7.20;61.20;100701.66;4935858;28;20065;-79
2021/01/04 10:25:15;;;;;;;14.35;2.63;;;;;;;7.62;60.58;100708.66;4937916;28;20524;-80
2021/01/04 10:27:44;;;;;;;26.35;3.40;;;;;;;7.70;60.05;100707.94;4932581;28;20128;-79
2021/01/04 10:30:25;;;;;;;16.17;2.90;;;;;;;7.53;60.47;100719.69;4972612;28;20060;-77
2021/01/04 10:33:08;;;;;;;17.27;2.55;;;;;;;7.65;60.27;100709.56;4985329;28;20144;-79
2021/01/04 10:35:35;;;;;;;;;;;;;;;7.64;60.42;100718.22;4982945;28;20077;-76
2021/01/04 10:38:12;;;;;;;14.02;2.78;;;;;;;7.80;60.70;100717.69;4978979;28;19926;-78
2021/01/04 10:40:47;;;;;;;19.92;3.13;;;;;;;7.56;60.69;100711.09;4959512;28;20081;-76
2021/01/04 10:43:20;;;;;;;18.10;2.90;;;;;;;7.21;61.34;100716.41;4988418;28;20141;-77
2021/01/04 10:46:43;;;;;;;19.00;3.78;;;;;;;7.85;60.07;100713.47;4988481;28;20113;-78
2021/01/04 10:49:24;;;;;;;14.10;2.88;;;;;;;6.99;61.61;100712.47;4963856;28;20042;-79
2021/01/04 10:51:54;;;;;;;17.88;3.03;;;;;;;7.30;61.40;100701.03;4978337;28;20046;-79
2021/01/04 10:54:42;;;;;;;20.63;3.50;;;;;;;7.97;59.79;100707.59;4964791;28;20152;-79
2021/01/04 10:57:37;;;;;;;18.52;3.13;;;;;;;7.43;61.60;100696.97;4983026;28;20046;-77
2021/01/04 11:00:13;;;;;;;8.55;2.63;;;;;;;8.10;60.21;100701.81;4944074;28;20054;-78
2021/01/04 11:02:49;;;;;;;13.90;3.65;;;;;;;7.61;61.11;100701.69;4923662;28;20051;-76
2021/01/04 11:05:39;;;;;;;19.30;4.30;;;;;;;8.61;57.97;100706.19;4936845;28;20137;-77
2021/01/04 11:08:18;;;;;;;11.30;2.85;;;;;;;8.65;56.51;100697.56;4945049;28;20155;-77
2021/01/04 11:11:17;;;;;;;17.23;2.78;;;;;;;8.20;58.08;100695.88;4916204;28;20065;-78
2021/01/04 11:13:44;;;;;;;17.88;2.80;;;;;;;8.31;57.36;100688.31;4941935;28;20054;-76
2021/01/04 11:16:16;;;;;;;15.93;2.97;;;;;;;7.64;59.46;100694.81;4936003;28;20123;-77
2021/01/04 11:18:46;;;;;;;18.35;5.53;;;;;;;8.03;58.66;100683.41;4929013;28;20046;-77
2021/01/04 11:21:20;;;;;;;14.60;2.80;;;;;;;8.21;57.09;100684.63;4926430;28;20050;-77
2021/01/04 11:23:47;;;;;;;14.90;2.70;;;;;;;8.24;58.19;100678.63;4937385;28;20058;-80
2021/01/04 11:26:14;;;;;;;13.38;3.65;;;;;;;7.87;58.22;100675.31;4948369;28;20047;-78
2021/01/04 11:28:42;;;;;;;10.10;2.30;;;;;;;7.35;58.86;100677.72;4936181;28;20050;-79
2021/01/04 11:31:10;;;;;;;11.30;2.20;;;;;;;7.26;59.51;100682.72;4895609;28;20055;-79
2021/01/04 11:33:38;;;;;;;15.82;4.03;;;;;;;7.41;59.13;100662.25;4923122;28;20053;-78
2021/01/04 11:36:06;;;;;;;12.68;2.72;;;;;;;6.82;60.64;100663.53;4943979;28;20652;-79
2021/01/04 11:38:33;;;;;;;26.67;4.45;;;;;;;7.40;59.28;100669.19;4982337;28;20048;-79
2021/01/04 11:41:02;;;;;;;14.73;3.00;;;;;;;7.56;58.52;100665.19;4975954;28;20069;-78
2021/01/04 11:43:33;;;;;;;13.02;2.58;;;;;;;7.62;59.18;100662.72;4968929;28;20438;-79
2021/01/04 11:46:01;;;;;;;16.35;2.90;;;;;;;7.03;59.27;100664.03;4980356;28;20129;-79
2021/01/04 11:48:28;;;;;;;18.05;2.88;;;;;;;7.00;60.19;100662.25;4977988;28;20416;-77
2021/01/04 11:50:57;;;;;;;18.25;3.05;;;;;;;7.84;59.12;100656.19;4972619;28;20133;-75
2021/01/04 11:53:28;;;;;;;17.83;3.22;;;;;;;7.91;59.52;100658.06;4974602;28;20053;-79
2021/01/04 11:55:55;;;;;;;11.15;2.20;;;;;;;7.88;59.59;100664.06;4974640;28;20046;-77
2021/01/04 11:58:24;;;;;;;14.43;2.45;;;;;;;7.35;60.54;100656.94;4960614;28;20066;-77
2021/01/04 12:00:53;;;;;;;13.40;2.83;;;;;;;8.02;58.21;100656.53;4987882;28;20130;-77
2021/01/04 12:03:26;;;;;;;17.38;2.60;;;;;;;7.33;60.25;100654.31;4968095;28;20042;-76
2021/01/04 12:05:54;;;;;;;18.55;3.67;;;;;;;7.38;60.21;100649.22;4978620;28;20050;-78
2021/01/04 12:08:22;;;;;;;15.35;2.75;;;;;;;7.49;59.10;100655.50;4992928;28;20200;-78
2021/01/04 12:10:50;;;;;;;8.82;2.25;;;;;;;7.10;59.60;100654.69;4995879;28;20045;-78
2021/01/04 12:13:18;;;;;;;7.97;1.70;;;;;;;6.93;60.60;100644.78;4975815;28;20050;-78
2021/01/04 12:15:45;;;;;;;14.48;2.03;;;;;;;7.63;59.39;100641.03;4987702;28;20049;-78
2021/01/04 12:18:15;;;;;;;7.90;1.75;;;;;;;7.15;59.07;100651.31;4986373;28;20053;-80
2021/01/04 12:20:43;;;;;;;14.85;2.22;;;;;;;7.73;58.08;100640.38;4980250;28;20059;-79
2021/01/04 12:23:10;;;;;;;11.40;2.13;;;;;;;6.73;60.05;100627.88;4990775;28;20055;-77
2021/01/04 12:25:37;;;;;;;8.40;1.48;;;;;;;7.27;57.94;100637.72;4976562;28;20046;-77
2021/01/04 12:28:05;;;;;;;10.15;1.67;;;;;;;7.16;58.40;100634.00;4975553;28;20107;-78
2021/01/04 12:30:33;;;;;;;13.70;2.13;;;;;;;6.68;59.07;100629.47;4978101;28;20045;-77